sensor_id;sensor_type;location;lat;lon;timestamp;P1;durP1;ratioP1;P2;durP2;ratioP2
9836;SDS011;4957;51.412;6.724;2022-08-23T00:01:09;3.97;;;2.87;;
9836;SDS011;4957;51.412;6.724;2022-08-23T00:03:37;3.83;;;2.23;;
9836;SDS011;4957;51.412;6.724;2022-08-23T00:06:03;5.40;;;2.50;;
9836;SDS011;4957;51.412;6.724;2022-08-23T00:08:31;9.33;;;2.93;;
9836;SDS011;4957;51.412;6.724;2022-08-23T00:10:57;5.47;;;2.60;;
9836;SDS011;4957;51.412;6.724;2022-08-23T00:13:23;6.20;;;2.70;;
9836;SDS011;4957;51.412;6.724;2022-08-23T00:15:49;5.10;;;3.00;;
9836;SDS011;4957;51.412;6.724;2022-08-23T00:18:15;5.43;;;2.80;;
9836;SDS011;4957;51.412;6.724;2022-08-23T00:20:42;5.47;;;2.97;;
9836;SDS011;4957;51.412;6.724;2022-08-23T00:23:08;8.67;;;2.93;;
9836;SDS011;4957;51.412;6.724;2022-08-23T00:25:34;4.20;;;2.80;;
9836;SDS011;4957;51.412;6.724;2022-08-23T00:28:00;4.30;;;2.93;;
9836;SDS011;4957;51.412;6.724;2022-08-23T00:30:26;4.67;;;2.97;;
9836;SDS011;4957;51.412;6.724;2022-08-23T00:32:52;4.33;;;2.53;;
9836;SDS011;4957;51.412;6.724;2022-08-23T00:35:19;5.20;;;2.60;;
9836;SDS011;4957;51.412;6.724;2022-08-23T00:37:45;9.40;;;2.90;;
9836;SDS011;4957;51.412;6.724;2022-08-23T00:40:12;7.00;;;2.80;;
9836;SDS011;4957;51.412;6.724;2022-08-23T00:42:42;5.60;;;2.63;;
9836;SDS011;4957;51.412;6.724;2022-08-23T00:48:33;3.93;;;2.70;;
9836;SDS011;4957;51.412;6.724;2022-08-23T00:53:49;4.53;;;3.13;;
9836;SDS011;4957;51.412;6.724;2022-08-23T00:56:20;4.53;;;3.03;;
9836;SDS011;4957;51.412;6.724;2022-08-23T00:58:48;5.63;;;3.00;;
9836;SDS011;4957;51.412;6.724;2022-08-23T01:01:15;6.90;;;3.63;;
9836;SDS011;4957;51.412;6.724;2022-08-23T01:03:42;7.27;;;3.10;;
9836;SDS011;4957;51.412;6.724;2022-08-23T01:06:12;7.80;;;3.30;;
9836;SDS011;4957;51.412;6.724;2022-08-23T01:08:42;4.10;;;2.83;;
9836;SDS011;4957;51.412;6.724;2022-08-23T01:11:13;5.93;;;3.50;;
9836;SDS011;4957;51.412;6.724;2022-08-23T01:13:57;8.83;;;3.50;;
9836;SDS011;4957;51.412;6.724;2022-08-23T01:16:33;3.40;;;3.00;;
9836;SDS011;4957;51.412;6.724;2022-08-23T01:19:10;5.97;;;2.93;;
9836;SDS011;4957;51.412;6.724;2022-08-23T01:21:51;9.20;;;3.80;;
9836;SDS011;4957;51.412;6.724;2022-08-23T01:24:23;8.03;;;3.43;;
9836;SDS011;4957;51.412;6.724;2022-08-23T01:26:49;5.90;;;3.30;;
9836;SDS011;4957;51.412;6.724;2022-08-23T01:29:15;5.87;;;3.50;;
9836;SDS011;4957;51.412;6.724;2022-08-23T01:31:41;6.00;;;3.20;;
9836;SDS011;4957;51.412;6.724;2022-08-23T01:34:08;4.93;;;3.63;;
9836;SDS011;4957;51.412;6.724;2022-08-23T01:36:36;5.60;;;3.53;;
9836;SDS011;4957;51.412;6.724;2022-08-23T01:39:02;7.93;;;3.70;;
9836;SDS011;4957;51.412;6.724;2022-08-23T01:41:29;6.27;;;3.87;;
9836;SDS011;4957;51.412;6.724;2022-08-23T01:43:55;6.27;;;4.17;;
9836;SDS011;4957;51.412;6.724;2022-08-23T01:46:22;9.07;;;3.57;;
9836;SDS011;4957;51.412;6.724;2022-08-23T01:48:50;6.57;;;3.60;;
9836;SDS011;4957;51.412;6.724;2022-08-23T01:51:18;6.10;;;3.73;;
9836;SDS011;4957;51.412;6.724;2022-08-23T01:53:45;5.53;;;3.90;;
9836;SDS011;4957;51.412;6.724;2022-08-23T01:56:11;9.30;;;3.67;;
9836;SDS011;4957;51.412;6.724;2022-08-23T01:58:38;8.50;;;3.97;;
9836;SDS011;4957;51.412;6.724;2022-08-23T02:01:04;8.03;;;4.37;;
9836;SDS011;4957;51.412;6.724;2022-08-23T02:03:30;5.93;;;4.00;;
9836;SDS011;4957;51.412;6.724;2022-08-23T02:05:57;6.33;;;3.50;;
9836;SDS011;4957;51.412;6.724;2022-08-23T02:08:23;5.63;;;4.00;;
9836;SDS011;4957;51.412;6.724;2022-08-23T02:11:13;6.87;;;4.47;;
9836;SDS011;4957;51.412;6.724;2022-08-23T02:13:41;9.27;;;4.80;;
9836;SDS011;4957;51.412;6.724;2022-08-23T02:16:07;8.87;;;4.10;;
9836;SDS011;4957;51.412;6.724;2022-08-23T02:18:33;8.07;;;4.43;;
9836;SDS011;4957;51.412;6.724;2022-08-23T02:20:59;9.37;;;4.40;;
9836;SDS011;4957;51.412;6.724;2022-08-23T02:23:25;9.10;;;4.50;;
9836;SDS011;4957;51.412;6.724;2022-08-23T02:25:51;8.27;;;4.30;;
9836;SDS011;4957;51.412;6.724;2022-08-23T02:28:18;6.47;;;4.60;;
9836;SDS011;4957;51.412;6.724;2022-08-23T02:30:45;6.63;;;4.40;;
9836;SDS011;4957;51.412;6.724;2022-08-23T02:33:10;6.93;;;4.30;;
9836;SDS011;4957;51.412;6.724;2022-08-23T02:35:37;9.83;;;4.00;;
9836;SDS011;4957;51.412;6.724;2022-08-23T02:38:04;7.83;;;4.13;;
9836;SDS011;4957;51.412;6.724;2022-08-23T02:40:31;7.67;;;4.40;;
9836;SDS011;4957;51.412;6.724;2022-08-23T02:42:57;4.63;;;4.13;;
9836;SDS011;4957;51.412;6.724;2022-08-23T02:45:24;5.73;;;4.50;;
9836;SDS011;4957;51.412;6.724;2022-08-23T02:47:50;13.37;;;4.70;;
9836;SDS011;4957;51.412;6.724;2022-08-23T02:50:16;12.43;;;4.63;;
9836;SDS011;4957;51.412;6.724;2022-08-23T02:52:43;7.10;;;4.40;;
9836;SDS011;4957;51.412;6.724;2022-08-23T02:55:09;6.70;;;4.37;;
9836;SDS011;4957;51.412;6.724;2022-08-23T02:57:35;8.77;;;4.50;;
9836;SDS011;4957;51.412;6.724;2022-08-23T03:00:00;8.90;;;4.30;;
9836;SDS011;4957;51.412;6.724;2022-08-23T03:02:27;7.63;;;4.57;;
9836;SDS011;4957;51.412;6.724;2022-08-23T03:04:53;10.20;;;4.37;;
9836;SDS011;4957;51.412;6.724;2022-08-23T03:07:19;8.07;;;4.67;;
9836;SDS011;4957;51.412;6.724;2022-08-23T03:09:45;5.07;;;4.13;;
9836;SDS011;4957;51.412;6.724;2022-08-23T03:12:10;5.40;;;3.93;;
9836;SDS011;4957;51.412;6.724;2022-08-23T03:14:36;7.97;;;4.10;;
9836;SDS011;4957;51.412;6.724;2022-08-23T03:17:02;8.30;;;4.47;;
9836;SDS011;4957;51.412;6.724;2022-08-23T03:19:29;9.60;;;4.63;;
9836;SDS011;4957;51.412;6.724;2022-08-23T03:21:54;7.37;;;4.47;;
9836;SDS011;4957;51.412;6.724;2022-08-23T03:24:20;6.17;;;4.87;;
9836;SDS011;4957;51.412;6.724;2022-08-23T03:26:46;7.23;;;4.43;;
9836;SDS011;4957;51.412;6.724;2022-08-23T03:29:12;8.73;;;4.90;;
9836;SDS011;4957;51.412;6.724;2022-08-23T03:31:38;6.83;;;4.90;;
9836;SDS011;4957;51.412;6.724;2022-08-23T03:34:05;6.40;;;4.80;;
9836;SDS011;4957;51.412;6.724;2022-08-23T03:36:31;7.73;;;4.57;;
9836;SDS011;4957;51.412;6.724;2022-08-23T03:38:58;6.63;;;4.90;;
9836;SDS011;4957;51.412;6.724;2022-08-23T03:41:24;5.73;;;4.43;;
9836;SDS011;4957;51.412;6.724;2022-08-23T03:43:50;7.43;;;4.97;;
9836;SDS011;4957;51.412;6.724;2022-08-23T03:46:17;6.13;;;4.77;;
9836;SDS011;4957;51.412;6.724;2022-08-23T03:48:52;7.70;;;5.20;;
9836;SDS011;4957;51.412;6.724;2022-08-23T03:51:21;5.90;;;4.97;;
9836;SDS011;4957;51.412;6.724;2022-08-23T03:53:48;7.80;;;4.80;;
9836;SDS011;4957;51.412;6.724;2022-08-23T03:56:30;5.73;;;5.17;;
9836;SDS011;4957;51.412;6.724;2022-08-23T03:59:03;9.57;;;5.17;;
9836;SDS011;4957;51.412;6.724;2022-08-23T04:01:31;9.37;;;5.13;;
9836;SDS011;4957;51.412;6.724;2022-08-23T04:03:57;5.90;;;5.00;;
9836;SDS011;4957;51.412;6.724;2022-08-23T04:06:24;7.37;;;5.10;;
9836;SDS011;4957;51.412;6.724;2022-08-23T04:08:53;6.53;;;4.80;;
9836;SDS011;4957;51.412;6.724;2022-08-23T04:11:20;11.17;;;5.57;;
9836;SDS011;4957;51.412;6.724;2022-08-23T04:13:46;6.90;;;5.17;;
9836;SDS011;4957;51.412;6.724;2022-08-23T04:16:12;7.37;;;5.10;;
9836;SDS011;4957;51.412;6.724;2022-08-23T04:18:38;10.73;;;5.07;;
9836;SDS011;4957;51.412;6.724;2022-08-23T04:21:08;7.23;;;4.80;;
9836;SDS011;4957;51.412;6.724;2022-08-23T04:23:37;11.97;;;4.80;;
9836;SDS011;4957;51.412;6.724;2022-08-23T04:26:03;7.90;;;4.77;;
9836;SDS011;4957;51.412;6.724;2022-08-23T04:28:31;7.03;;;4.53;;
9836;SDS011;4957;51.412;6.724;2022-08-23T04:30:58;8.80;;;4.43;;
9836;SDS011;4957;51.412;6.724;2022-08-23T04:33:27;8.70;;;4.80;;
9836;SDS011;4957;51.412;6.724;2022-08-23T04:35:55;11.50;;;5.57;;
9836;SDS011;4957;51.412;6.724;2022-08-23T04:38:21;11.23;;;4.80;;
9836;SDS011;4957;51.412;6.724;2022-08-23T04:40:47;9.63;;;5.80;;
9836;SDS011;4957;51.412;6.724;2022-08-23T04:43:31;7.33;;;5.03;;
9836;SDS011;4957;51.412;6.724;2022-08-23T04:45:57;9.60;;;4.57;;
9836;SDS011;4957;51.412;6.724;2022-08-23T04:48:22;11.47;;;4.83;;
9836;SDS011;4957;51.412;6.724;2022-08-23T04:50:48;8.23;;;4.33;;
9836;SDS011;4957;51.412;6.724;2022-08-23T04:53:14;11.03;;;5.43;;
9836;SDS011;4957;51.412;6.724;2022-08-23T04:55:40;13.93;;;5.20;;
9836;SDS011;4957;51.412;6.724;2022-08-23T04:58:06;8.00;;;4.40;;
9836;SDS011;4957;51.412;6.724;2022-08-23T05:00:32;7.70;;;4.60;;
9836;SDS011;4957;51.412;6.724;2022-08-23T05:02:58;10.77;;;4.83;;
9836;SDS011;4957;51.412;6.724;2022-08-23T05:05:24;7.87;;;4.70;;
9836;SDS011;4957;51.412;6.724;2022-08-23T05:07:51;9.20;;;4.80;;
9836;SDS011;4957;51.412;6.724;2022-08-23T05:10:17;8.90;;;5.70;;
9836;SDS011;4957;51.412;6.724;2022-08-23T05:12:43;11.57;;;5.40;;
9836;SDS011;4957;51.412;6.724;2022-08-23T05:15:10;12.00;;;4.93;;
9836;SDS011;4957;51.412;6.724;2022-08-23T05:17:36;8.63;;;5.20;;
9836;SDS011;4957;51.412;6.724;2022-08-23T05:20:03;10.00;;;5.40;;
9836;SDS011;4957;51.412;6.724;2022-08-23T05:22:36;10.83;;;5.03;;
9836;SDS011;4957;51.412;6.724;2022-08-23T05:25:03;11.43;;;5.27;;
9836;SDS011;4957;51.412;6.724;2022-08-23T05:27:29;10.03;;;5.00;;
9836;SDS011;4957;51.412;6.724;2022-08-23T05:29:55;7.37;;;5.00;;
9836;SDS011;4957;51.412;6.724;2022-08-23T05:32:20;7.10;;;4.40;;
9836;SDS011;4957;51.412;6.724;2022-08-23T05:34:46;11.27;;;4.93;;
9836;SDS011;4957;51.412;6.724;2022-08-23T05:37:13;10.30;;;5.10;;
9836;SDS011;4957;51.412;6.724;2022-08-23T05:39:39;8.20;;;5.20;;
9836;SDS011;4957;51.412;6.724;2022-08-23T05:42:06;11.03;;;5.47;;
9836;SDS011;4957;51.412;6.724;2022-08-23T05:44:33;8.40;;;4.90;;
9836;SDS011;4957;51.412;6.724;2022-08-23T05:46:58;13.57;;;6.00;;
9836;SDS011;4957;51.412;6.724;2022-08-23T05:49:24;9.00;;;5.20;;
9836;SDS011;4957;51.412;6.724;2022-08-23T05:51:50;8.87;;;5.27;;
9836;SDS011;4957;51.412;6.724;2022-08-23T05:54:15;11.10;;;4.93;;
9836;SDS011;4957;51.412;6.724;2022-08-23T05:56:41;7.90;;;5.20;;
9836;SDS011;4957;51.412;6.724;2022-08-23T05:59:09;10.27;;;4.83;;
9836;SDS011;4957;51.412;6.724;2022-08-23T06:01:37;12.77;;;5.30;;
9836;SDS011;4957;51.412;6.724;2022-08-23T06:04:04;7.03;;;5.10;;
9836;SDS011;4957;51.412;6.724;2022-08-23T06:06:32;7.67;;;4.70;;
9836;SDS011;4957;51.412;6.724;2022-08-23T06:08:58;11.70;;;5.10;;
9836;SDS011;4957;51.412;6.724;2022-08-23T06:11:26;9.10;;;5.10;;
9836;SDS011;4957;51.412;6.724;2022-08-23T06:13:54;7.97;;;4.93;;
9836;SDS011;4957;51.412;6.724;2022-08-23T06:16:26;11.70;;;5.30;;
9836;SDS011;4957;51.412;6.724;2022-08-23T06:19:00;8.63;;;5.60;;
9836;SDS011;4957;51.412;6.724;2022-08-23T06:21:27;10.33;;;5.23;;
9836;SDS011;4957;51.412;6.724;2022-08-23T06:23:54;9.23;;;5.40;;
9836;SDS011;4957;51.412;6.724;2022-08-23T06:26:22;15.47;;;6.57;;
9836;SDS011;4957;51.412;6.724;2022-08-23T06:28:50;11.97;;;5.40;;
9836;SDS011;4957;51.412;6.724;2022-08-23T06:31:19;7.97;;;5.40;;
9836;SDS011;4957;51.412;6.724;2022-08-23T06:34:04;11.33;;;5.70;;
9836;SDS011;4957;51.412;6.724;2022-08-23T06:36:31;10.87;;;5.33;;
9836;SDS011;4957;51.412;6.724;2022-08-23T06:38:57;12.17;;;5.90;;
9836;SDS011;4957;51.412;6.724;2022-08-23T06:41:23;16.93;;;6.10;;
9836;SDS011;4957;51.412;6.724;2022-08-23T06:43:49;15.60;;;6.17;;
9836;SDS011;4957;51.412;6.724;2022-08-23T06:46:19;17.60;;;7.57;;
9836;SDS011;4957;51.412;6.724;2022-08-23T06:48:46;16.10;;;6.60;;
9836;SDS011;4957;51.412;6.724;2022-08-23T06:51:14;12.63;;;5.73;;
9836;SDS011;4957;51.412;6.724;2022-08-23T06:53:51;12.00;;;6.00;;
9836;SDS011;4957;51.412;6.724;2022-08-23T06:56:21;18.87;;;5.70;;
9836;SDS011;4957;51.412;6.724;2022-08-23T06:58:48;13.27;;;5.70;;
9836;SDS011;4957;51.412;6.724;2022-08-23T07:03:53;10.77;;;6.27;;
9836;SDS011;4957;51.412;6.724;2022-08-23T07:06:20;13.50;;;5.30;;
9836;SDS011;4957;51.412;6.724;2022-08-23T07:08:47;15.67;;;5.00;;
9836;SDS011;4957;51.412;6.724;2022-08-23T07:11:13;10.17;;;5.77;;
9836;SDS011;4957;51.412;6.724;2022-08-23T07:13:39;9.63;;;5.03;;
9836;SDS011;4957;51.412;6.724;2022-08-23T07:16:05;13.00;;;5.30;;
9836;SDS011;4957;51.412;6.724;2022-08-23T07:18:31;11.80;;;6.27;;
9836;SDS011;4957;51.412;6.724;2022-08-23T07:20:57;15.93;;;6.63;;
9836;SDS011;4957;51.412;6.724;2022-08-23T07:23:25;15.87;;;5.97;;
9836;SDS011;4957;51.412;6.724;2022-08-23T07:25:51;12.77;;;5.90;;
9836;SDS011;4957;51.412;6.724;2022-08-23T07:28:17;15.57;;;6.13;;
9836;SDS011;4957;51.412;6.724;2022-08-23T07:30:44;13.50;;;5.83;;
9836;SDS011;4957;51.412;6.724;2022-08-23T07:33:12;15.30;;;5.63;;
9836;SDS011;4957;51.412;6.724;2022-08-23T07:35:47;10.10;;;5.10;;
9836;SDS011;4957;51.412;6.724;2022-08-23T07:38:14;14.90;;;6.30;;
9836;SDS011;4957;51.412;6.724;2022-08-23T07:40:41;13.13;;;5.43;;
9836;SDS011;4957;51.412;6.724;2022-08-23T07:43:07;16.40;;;5.37;;
9836;SDS011;4957;51.412;6.724;2022-08-23T07:45:34;15.43;;;5.40;;
9836;SDS011;4957;51.412;6.724;2022-08-23T07:48:00;15.60;;;4.73;;
9836;SDS011;4957;51.412;6.724;2022-08-23T07:50:27;25.33;;;5.13;;
9836;SDS011;4957;51.412;6.724;2022-08-23T07:52:53;13.33;;;5.07;;
9836;SDS011;4957;51.412;6.724;2022-08-23T07:55:19;12.30;;;4.53;;
9836;SDS011;4957;51.412;6.724;2022-08-23T07:57:46;12.90;;;5.03;;
9836;SDS011;4957;51.412;6.724;2022-08-23T08:00:12;11.10;;;4.40;;
9836;SDS011;4957;51.412;6.724;2022-08-23T08:02:39;8.97;;;4.00;;
9836;SDS011;4957;51.412;6.724;2022-08-23T08:05:05;9.57;;;4.57;;
9836;SDS011;4957;51.412;6.724;2022-08-23T08:07:31;8.87;;;4.50;;
9836;SDS011;4957;51.412;6.724;2022-08-23T08:09:57;18.00;;;4.90;;
9836;SDS011;4957;51.412;6.724;2022-08-23T08:12:23;9.00;;;4.10;;
9836;SDS011;4957;51.412;6.724;2022-08-23T08:14:50;8.37;;;3.70;;
9836;SDS011;4957;51.412;6.724;2022-08-23T08:17:17;11.27;;;3.17;;
9836;SDS011;4957;51.412;6.724;2022-08-23T08:19:43;13.40;;;3.90;;
9836;SDS011;4957;51.412;6.724;2022-08-23T08:22:09;14.30;;;4.00;;
9836;SDS011;4957;51.412;6.724;2022-08-23T08:24:36;14.20;;;4.20;;
9836;SDS011;4957;51.412;6.724;2022-08-23T08:27:02;13.80;;;5.23;;
9836;SDS011;4957;51.412;6.724;2022-08-23T08:29:28;15.17;;;5.40;;
9836;SDS011;4957;51.412;6.724;2022-08-23T08:31:54;15.53;;;5.47;;
9836;SDS011;4957;51.412;6.724;2022-08-23T08:34:20;16.70;;;5.90;;
9836;SDS011;4957;51.412;6.724;2022-08-23T08:36:50;19.43;;;6.10;;
9836;SDS011;4957;51.412;6.724;2022-08-23T08:39:20;10.70;;;4.27;;
9836;SDS011;4957;51.412;6.724;2022-08-23T08:41:54;8.43;;;4.07;;
9836;SDS011;4957;51.412;6.724;2022-08-23T08:44:40;11.00;;;4.50;;
9836;SDS011;4957;51.412;6.724;2022-08-23T08:50:39;13.50;;;5.03;;
9836;SDS011;4957;51.412;6.724;2022-08-23T08:52:53;15.80;;;5.13;;
9836;SDS011;4957;51.412;6.724;2022-08-23T08:55:32;13.10;;;4.83;;
9836;SDS011;4957;51.412;6.724;2022-08-23T08:58:05;13.10;;;4.40;;
9836;SDS011;4957;51.412;6.724;2022-08-23T09:00:36;12.60;;;4.30;;
9836;SDS011;4957;51.412;6.724;2022-08-23T09:03:08;17.57;;;5.10;;
9836;SDS011;4957;51.412;6.724;2022-08-23T09:05:38;19.00;;;5.27;;
9836;SDS011;4957;51.412;6.724;2022-08-23T09:10:51;15.97;;;5.13;;
9836;SDS011;4957;51.412;6.724;2022-08-23T09:13:41;18.57;;;7.40;;
9836;SDS011;4957;51.412;6.724;2022-08-23T09:16:31;24.90;;;8.87;;
9836;SDS011;4957;51.412;6.724;2022-08-23T09:19:03;17.13;;;7.80;;
9836;SDS011;4957;51.412;6.724;2022-08-23T09:21:37;18.33;;;6.57;;
9836;SDS011;4957;51.412;6.724;2022-08-23T09:24:08;14.63;;;6.47;;
9836;SDS011;4957;51.412;6.724;2022-08-23T09:26:34;16.73;;;5.80;;
9836;SDS011;4957;51.412;6.724;2022-08-23T09:29:02;16.63;;;5.90;;
9836;SDS011;4957;51.412;6.724;2022-08-23T09:31:45;23.17;;;7.30;;
9836;SDS011;4957;51.412;6.724;2022-08-23T09:39:35;15.57;;;4.73;;
9836;SDS011;4957;51.412;6.724;2022-08-23T09:42:03;24.70;;;5.27;;
9836;SDS011;4957;51.412;6.724;2022-08-23T09:44:53;9.00;;;4.37;;
9836;SDS011;4957;51.412;6.724;2022-08-23T09:47:20;14.97;;;4.80;;
9836;SDS011;4957;51.412;6.724;2022-08-23T09:49:57;15.53;;;4.80;;
9836;SDS011;4957;51.412;6.724;2022-08-23T09:52:48;16.43;;;4.60;;
9836;SDS011;4957;51.412;6.724;2022-08-23T09:58:04;10.67;;;5.00;;
9836;SDS011;4957;51.412;6.724;2022-08-23T10:00:42;15.20;;;5.07;;
9836;SDS011;4957;51.412;6.724;2022-08-23T10:03:22;14.60;;;4.90;;
9836;SDS011;4957;51.412;6.724;2022-08-23T10:05:55;18.53;;;5.50;;
9836;SDS011;4957;51.412;6.724;2022-08-23T10:08:33;12.47;;;4.87;;
9836;SDS011;4957;51.412;6.724;2022-08-23T10:11:16;13.60;;;4.60;;
9836;SDS011;4957;51.412;6.724;2022-08-23T10:13:43;8.23;;;3.70;;
9836;SDS011;4957;51.412;6.724;2022-08-23T10:18:53;10.33;;;3.57;;
9836;SDS011;4957;51.412;6.724;2022-08-23T10:26:25;9.63;;;2.97;;
9836;SDS011;4957;51.412;6.724;2022-08-23T10:45:54;5.80;;;2.40;;
9836;SDS011;4957;51.412;6.724;2022-08-23T10:48:25;10.50;;;2.70;;
9836;SDS011;4957;51.412;6.724;2022-08-23T10:51:00;10.60;;;2.93;;
9836;SDS011;4957;51.412;6.724;2022-08-23T10:56:10;9.73;;;2.40;;
9836;SDS011;4957;51.412;6.724;2022-08-23T11:01:22;4.67;;;2.53;;
9836;SDS011;4957;51.412;6.724;2022-08-23T11:07:54;8.07;;;2.30;;
9836;SDS011;4957;51.412;6.724;2022-08-23T11:10:16;6.60;;;2.33;;
9836;SDS011;4957;51.412;6.724;2022-08-23T11:18:39;3.47;;;2.20;;
9836;SDS011;4957;51.412;6.724;2022-08-23T11:21:40;4.30;;;2.33;;
9836;SDS011;4957;51.412;6.724;2022-08-23T11:28:55;13.67;;;5.50;;
9836;SDS011;4957;51.412;6.724;2022-08-23T11:32:00;12.10;;;3.97;;
9836;SDS011;4957;51.412;6.724;2022-08-23T11:34:49;7.67;;;3.03;;
9836;SDS011;4957;51.412;6.724;2022-08-23T11:37:23;6.77;;;3.03;;
9836;SDS011;4957;51.412;6.724;2022-08-23T11:45:02;7.33;;;3.43;;
9836;SDS011;4957;51.412;6.724;2022-08-23T11:48:10;5.93;;;2.80;;
9836;SDS011;4957;51.412;6.724;2022-08-23T11:51:18;8.33;;;3.03;;
9836;SDS011;4957;51.412;6.724;2022-08-23T12:01:32;26.87;;;3.50;;
9836;SDS011;4957;51.412;6.724;2022-08-23T12:04:01;7.10;;;2.70;;
9836;SDS011;4957;51.412;6.724;2022-08-23T12:06:43;8.73;;;2.63;;
9836;SDS011;4957;51.412;6.724;2022-08-23T12:19:44;6.83;;;2.40;;
9836;SDS011;4957;51.412;6.724;2022-08-23T12:25:17;8.20;;;2.70;;
9836;SDS011;4957;51.412;6.724;2022-08-23T12:27:45;6.77;;;2.30;;
9836;SDS011;4957;51.412;6.724;2022-08-23T12:30:35;5.23;;;2.70;;
9836;SDS011;4957;51.412;6.724;2022-08-23T12:33:24;10.70;;;2.80;;
9836;SDS011;4957;51.412;6.724;2022-08-23T12:36:03;5.80;;;2.50;;
9836;SDS011;4957;51.412;6.724;2022-08-23T12:44:15;7.53;;;2.53;;
9836;SDS011;4957;51.412;6.724;2022-08-23T12:46:45;5.23;;;2.70;;
9836;SDS011;4957;51.412;6.724;2022-08-23T12:49:26;7.13;;;2.70;;
9836;SDS011;4957;51.412;6.724;2022-08-23T12:52:00;7.07;;;2.80;;
9836;SDS011;4957;51.412;6.724;2022-08-23T12:54:41;10.60;;;2.57;;
9836;SDS011;4957;51.412;6.724;2022-08-23T12:57:11;7.60;;;2.80;;
9836;SDS011;4957;51.412;6.724;2022-08-23T13:02:25;4.63;;;1.60;;
9836;SDS011;4957;51.412;6.724;2022-08-23T13:04:55;7.70;;;2.17;;
9836;SDS011;4957;51.412;6.724;2022-08-23T13:07:26;7.17;;;2.33;;
9836;SDS011;4957;51.412;6.724;2022-08-23T13:09:53;4.73;;;2.40;;
9836;SDS011;4957;51.412;6.724;2022-08-23T13:12:20;11.63;;;2.40;;
9836;SDS011;4957;51.412;6.724;2022-08-23T13:14:48;7.80;;;2.37;;
9836;SDS011;4957;51.412;6.724;2022-08-23T13:20:09;12.90;;;2.57;;
9836;SDS011;4957;51.412;6.724;2022-08-23T13:25:37;5.57;;;2.00;;
9836;SDS011;4957;51.412;6.724;2022-08-23T13:31:11;3.53;;;1.67;;
9836;SDS011;4957;51.412;6.724;2022-08-23T13:33:36;5.87;;;2.17;;
9836;SDS011;4957;51.412;6.724;2022-08-23T13:36:15;6.83;;;2.07;;
9836;SDS011;4957;51.412;6.724;2022-08-23T13:38:44;5.70;;;2.20;;
9836;SDS011;4957;51.412;6.724;2022-08-23T13:41:10;6.03;;;2.40;;
9836;SDS011;4957;51.412;6.724;2022-08-23T13:43:54;4.60;;;2.60;;
9836;SDS011;4957;51.412;6.724;2022-08-23T13:46:24;5.43;;;2.67;;
9836;SDS011;4957;51.412;6.724;2022-08-23T13:49:02;5.23;;;1.90;;
9836;SDS011;4957;51.412;6.724;2022-08-23T13:51:30;6.03;;;2.00;;
9836;SDS011;4957;51.412;6.724;2022-08-23T13:53:58;3.33;;;1.63;;
9836;SDS011;4957;51.412;6.724;2022-08-23T13:56:26;2.70;;;1.50;;
9836;SDS011;4957;51.412;6.724;2022-08-23T13:59:03;5.00;;;2.07;;
9836;SDS011;4957;51.412;6.724;2022-08-23T14:01:32;5.23;;;2.83;;
9836;SDS011;4957;51.412;6.724;2022-08-23T14:03:58;6.67;;;2.20;;
9836;SDS011;4957;51.412;6.724;2022-08-23T14:06:24;4.53;;;2.00;;
9836;SDS011;4957;51.412;6.724;2022-08-23T14:08:50;4.30;;;2.17;;
9836;SDS011;4957;51.412;6.724;2022-08-23T14:11:15;3.03;;;2.10;;
9836;SDS011;4957;51.412;6.724;2022-08-23T14:13:45;6.77;;;1.77;;
9836;SDS011;4957;51.412;6.724;2022-08-23T14:16:20;3.90;;;2.10;;
9836;SDS011;4957;51.412;6.724;2022-08-23T14:18:51;2.93;;;1.70;;
9836;SDS011;4957;51.412;6.724;2022-08-23T14:21:16;4.93;;;1.87;;
9836;SDS011;4957;51.412;6.724;2022-08-23T14:23:42;3.77;;;1.73;;
9836;SDS011;4957;51.412;6.724;2022-08-23T14:26:07;5.10;;;1.80;;
9836;SDS011;4957;51.412;6.724;2022-08-23T14:28:38;5.13;;;1.63;;
9836;SDS011;4957;51.412;6.724;2022-08-23T14:31:03;3.90;;;1.80;;
9836;SDS011;4957;51.412;6.724;2022-08-23T14:33:29;6.70;;;2.00;;
9836;SDS011;4957;51.412;6.724;2022-08-23T14:35:55;3.17;;;1.70;;
9836;SDS011;4957;51.412;6.724;2022-08-23T14:38:21;4.43;;;1.80;;
9836;SDS011;4957;51.412;6.724;2022-08-23T14:40:50;7.03;;;1.70;;
9836;SDS011;4957;51.412;6.724;2022-08-23T14:43:21;4.90;;;1.70;;
9836;SDS011;4957;51.412;6.724;2022-08-23T14:45:47;8.17;;;1.77;;
9836;SDS011;4957;51.412;6.724;2022-08-23T14:48:13;5.53;;;1.83;;
9836;SDS011;4957;51.412;6.724;2022-08-23T14:50:39;4.43;;;2.10;;
9836;SDS011;4957;51.412;6.724;2022-08-23T14:53:05;6.23;;;1.87;;
9836;SDS011;4957;51.412;6.724;2022-08-23T14:55:31;5.63;;;2.37;;
9836;SDS011;4957;51.412;6.724;2022-08-23T14:57:57;6.10;;;1.70;;
9836;SDS011;4957;51.412;6.724;2022-08-23T15:00:24;3.67;;;1.77;;
9836;SDS011;4957;51.412;6.724;2022-08-23T15:02:56;6.23;;;1.80;;
9836;SDS011;4957;51.412;6.724;2022-08-23T15:05:23;6.70;;;1.80;;
9836;SDS011;4957;51.412;6.724;2022-08-23T15:07:48;6.27;;;1.97;;
9836;SDS011;4957;51.412;6.724;2022-08-23T15:10:14;5.90;;;1.60;;
9836;SDS011;4957;51.412;6.724;2022-08-23T15:12:40;4.00;;;2.77;;
9836;SDS011;4957;51.412;6.724;2022-08-23T15:15:07;3.30;;;1.83;;
9836;SDS011;4957;51.412;6.724;2022-08-23T15:17:37;5.10;;;1.60;;
9836;SDS011;4957;51.412;6.724;2022-08-23T15:20:10;2.07;;;1.37;;
9836;SDS011;4957;51.412;6.724;2022-08-23T15:22:36;3.67;;;1.67;;
9836;SDS011;4957;51.412;6.724;2022-08-23T15:25:02;6.03;;;1.90;;
9836;SDS011;4957;51.412;6.724;2022-08-23T15:27:28;3.47;;;1.67;;
9836;SDS011;4957;51.412;6.724;2022-08-23T15:29:55;5.63;;;1.53;;
9836;SDS011;4957;51.412;6.724;2022-08-23T15:32:20;3.23;;;1.50;;
9836;SDS011;4957;51.412;6.724;2022-08-23T15:34:46;4.60;;;1.70;;
9836;SDS011;4957;51.412;6.724;2022-08-23T15:37:12;3.40;;;1.20;;
9836;SDS011;4957;51.412;6.724;2022-08-23T15:39:39;3.07;;;1.43;;
9836;SDS011;4957;51.412;6.724;2022-08-23T15:42:05;3.93;;;1.30;;
9836;SDS011;4957;51.412;6.724;2022-08-23T15:44:31;2.40;;;1.33;;
9836;SDS011;4957;51.412;6.724;2022-08-23T15:46:56;6.17;;;1.40;;
9836;SDS011;4957;51.412;6.724;2022-08-23T15:49:22;3.00;;;1.20;;
9836;SDS011;4957;51.412;6.724;2022-08-23T15:51:51;2.70;;;1.20;;
9836;SDS011;4957;51.412;6.724;2022-08-23T15:54:17;2.57;;;1.30;;
9836;SDS011;4957;51.412;6.724;2022-08-23T15:56:44;5.00;;;1.27;;
9836;SDS011;4957;51.412;6.724;2022-08-23T15:59:14;8.23;;;1.70;;
9836;SDS011;4957;51.412;6.724;2022-08-23T16:01:41;4.03;;;1.60;;
9836;SDS011;4957;51.412;6.724;2022-08-23T16:04:08;4.87;;;1.80;;
9836;SDS011;4957;51.412;6.724;2022-08-23T16:06:35;2.33;;;1.50;;
9836;SDS011;4957;51.412;6.724;2022-08-23T16:09:03;3.70;;;1.50;;
9836;SDS011;4957;51.412;6.724;2022-08-23T16:11:30;3.70;;;1.33;;
9836;SDS011;4957;51.412;6.724;2022-08-23T16:13:56;3.13;;;1.50;;
9836;SDS011;4957;51.412;6.724;2022-08-23T16:16:24;3.23;;;1.33;;
9836;SDS011;4957;51.412;6.724;2022-08-23T16:18:55;4.27;;;1.60;;
9836;SDS011;4957;51.412;6.724;2022-08-23T16:21:23;6.63;;;1.73;;
9836;SDS011;4957;51.412;6.724;2022-08-23T16:23:53;2.33;;;1.50;;
9836;SDS011;4957;51.412;6.724;2022-08-23T16:26:21;2.13;;;1.27;;
9836;SDS011;4957;51.412;6.724;2022-08-23T16:28:50;4.03;;;1.40;;
9836;SDS011;4957;51.412;6.724;2022-08-23T16:31:18;1.80;;;1.30;;
9836;SDS011;4957;51.412;6.724;2022-08-23T16:33:43;2.57;;;1.47;;
9836;SDS011;4957;51.412;6.724;2022-08-23T16:36:11;4.00;;;1.63;;
9836;SDS011;4957;51.412;6.724;2022-08-23T16:38:38;3.33;;;1.33;;
9836;SDS011;4957;51.412;6.724;2022-08-23T16:41:04;2.43;;;1.47;;
9836;SDS011;4957;51.412;6.724;2022-08-23T16:43:30;7.33;;;1.63;;
9836;SDS011;4957;51.412;6.724;2022-08-23T16:45:56;2.27;;;1.53;;
9836;SDS011;4957;51.412;6.724;2022-08-23T16:48:21;3.93;;;1.37;;
9836;SDS011;4957;51.412;6.724;2022-08-23T16:50:47;4.90;;;1.60;;
9836;SDS011;4957;51.412;6.724;2022-08-23T16:53:14;5.57;;;1.70;;
9836;SDS011;4957;51.412;6.724;2022-08-23T16:55:41;3.60;;;1.40;;
9836;SDS011;4957;51.412;6.724;2022-08-23T16:58:07;5.23;;;1.60;;
9836;SDS011;4957;51.412;6.724;2022-08-23T17:00:34;3.20;;;1.30;;
9836;SDS011;4957;51.412;6.724;2022-08-23T17:03:00;4.73;;;1.27;;
9836;SDS011;4957;51.412;6.724;2022-08-23T17:05:26;2.00;;;1.20;;
9836;SDS011;4957;51.412;6.724;2022-08-23T17:07:53;3.10;;;1.10;;
9836;SDS011;4957;51.412;6.724;2022-08-23T17:10:20;3.57;;;1.60;;
9836;SDS011;4957;51.412;6.724;2022-08-23T17:12:48;2.73;;;1.33;;